createdAt,value
2017-11-19T00:00:29.160Z,98.02
2017-11-19T00:01:29.146Z,97.99
2017-11-19T00:02:29.131Z,97.96
2017-11-19T00:03:29.127Z,97.91
2017-11-19T00:04:29.211Z,97.88
2017-11-19T00:05:29.157Z,98.10
2017-11-19T00:06:29.126Z,98.12
2017-11-19T00:07:29.124Z,98.23
2017-11-19T00:08:29.223Z,98.23
2017-11-19T00:09:29.282Z,98.29
2017-11-19T00:10:29.126Z,98.23
2017-11-19T00:11:29.093Z,98.23
2017-11-19T00:12:29.163Z,98.31
2017-11-19T00:13:29.219Z,98.42
2017-11-19T00:14:29.128Z,98.40
2017-11-19T00:15:29.092Z,98.26
2017-11-19T00:16:29.224Z,98.34
2017-11-19T00:17:29.210Z,98.29
2017-11-19T00:18:29.216Z,98.31
2017-11-19T00:19:29.113Z,98.31
2017-11-19T00:20:29.215Z,98.42
2017-11-19T00:21:29.168Z,98.45
2017-11-19T00:22:29.236Z,98.53
2017-11-19T00:23:29.166Z,98.55
2017-11-19T00:24:29.236Z,98.55
2017-11-19T00:25:29.234Z,98.50
2017-11-19T00:26:29.171Z,98.50
2017-11-19T00:27:29.236Z,98.59
2017-11-19T00:28:29.173Z,98.53
2017-11-19T00:29:29.237Z,98.40
2017-11-19T00:30:29.172Z,98.40
2017-11-19T00:31:29.173Z,98.37
2017-11-19T00:32:29.229Z,98.26
2017-11-19T00:33:29.229Z,98.12
2017-11-19T00:34:29.148Z,98.12
2017-11-19T00:35:29.125Z,98.10
2017-11-19T00:36:29.151Z,97.77
2017-11-19T00:37:29.247Z,97.53
2017-11-19T00:38:29.194Z,97.42
2017-11-19T00:39:29.193Z,97.58
2017-11-19T00:40:29.176Z,97.55
2017-11-19T00:41:29.243Z,97.64
2017-11-19T00:42:29.261Z,97.58
2017-11-19T00:43:29.182Z,97.47
2017-11-19T00:44:29.246Z,97.45
2017-11-19T00:45:29.279Z,97.21
2017-11-19T00:46:29.178Z,97.21
2017-11-19T00:47:29.249Z,96.93
2017-11-19T00:48:29.186Z,96.93
2017-11-19T00:49:29.254Z,97.10
2017-11-19T00:50:29.251Z,97.12
2017-11-19T00:51:29.188Z,97.15
2017-11-19T00:52:29.249Z,97.21
2017-11-19T00:53:29.204Z,97.21
2017-11-19T00:54:29.255Z,97.23
2017-11-19T00:55:29.261Z,97.45
2017-11-19T00:56:29.190Z,97.58
2017-11-19T00:57:29.185Z,97.74
2017-11-19T00:58:29.157Z,97.85
2017-11-19T00:59:29.191Z,98.10
2017-11-19T01:00:29.256Z,98.18
2017-11-19T01:01:29.193Z,98.12
2017-11-19T01:02:29.256Z,98.10
2017-11-19T01:03:29.196Z,98.12
2017-11-19T01:04:29.191Z,98.23
2017-11-19T01:05:29.264Z,98.42
2017-11-19T01:06:29.196Z,98.64
2017-11-19T01:07:29.264Z,98.69
2017-11-19T01:08:29.191Z,98.85
2017-11-19T01:09:29.287Z,99.10
2017-11-19T01:10:29.194Z,99.07
2017-11-19T01:11:29.265Z,99.13
2017-11-19T01:12:29.196Z,99.07
2017-11-19T01:13:29.200Z,98.99
2017-11-19T01:14:29.267Z,99.04
2017-11-19T01:15:29.202Z,99.13
2017-11-19T01:16:29.226Z,99.13
2017-11-19T01:17:29.265Z,99.21
2017-11-19T01:18:29.243Z,99.23
2017-11-19T01:19:29.274Z,99.34
2017-11-19T01:20:29.212Z,99.43
2017-11-19T01:21:29.268Z,99.48
2017-11-19T01:22:29.265Z,99.53
2017-11-19T01:23:29.270Z,99.59
2017-11-19T01:24:29.270Z,99.48
2017-11-19T01:25:29.278Z,99.48
2017-11-19T01:26:29.209Z,99.45
2017-11-19T01:27:29.273Z,99.59
2017-11-19T01:28:29.207Z,99.72
2017-11-19T01:29:29.275Z,99.83
2017-11-19T01:30:29.274Z,99.94
2017-11-19T01:31:29.290Z,99.99
2017-11-19T01:32:29.225Z,99.99
2017-11-19T01:33:29.285Z,99.99
2017-11-19T01:34:29.215Z,99.99
2017-11-19T01:35:29.278Z,99.99
2017-11-19T01:36:29.211Z,99.99
2017-11-19T01:37:29.276Z,99.99
2017-11-19T01:38:29.312Z,99.99
2017-11-19T01:39:29.280Z,99.99
2017-11-19T01:40:29.214Z,99.99
2017-11-19T01:41:29.237Z,99.99
2017-11-19T01:42:29.268Z,99.99
2017-11-19T01:43:29.146Z,99.99
2017-11-19T01:44:29.273Z,99.99
2017-11-19T01:45:29.274Z,99.99
2017-11-19T01:46:29.183Z,99.99
2017-11-19T01:47:29.192Z,99.99
2017-11-19T01:48:29.273Z,99.99
2017-11-19T01:49:29.213Z,99.99
2017-11-19T01:50:29.271Z,99.99
2017-11-19T01:51:29.286Z,99.99
2017-11-19T01:52:29.219Z,99.99
2017-11-19T01:53:29.289Z,99.99
2017-11-19T01:54:29.167Z,99.99
2017-11-19T01:55:29.224Z,99.99
2017-11-19T01:56:29.288Z,99.99
2017-11-19T01:57:29.225Z,99.99
2017-11-19T01:58:29.289Z,99.99
2017-11-19T01:59:29.292Z,99.99
2017-11-19T02:00:29.226Z,99.99
2017-11-19T02:01:29.294Z,99.89
2017-11-19T02:02:29.227Z,99.81
2017-11-19T02:03:29.293Z,99.64
2017-11-19T02:04:29.294Z,99.59
2017-11-19T02:05:29.231Z,99.26
2017-11-19T02:06:29.297Z,99.10
2017-11-19T02:07:29.237Z,99.02
2017-11-19T02:08:29.298Z,98.94
2017-11-19T02:09:29.233Z,98.91
2017-11-19T02:10:29.298Z,98.85
2017-11-19T02:11:29.234Z,98.83
2017-11-19T02:12:29.233Z,98.85
2017-11-19T02:13:29.204Z,98.85
2017-11-19T02:14:29.188Z,98.94
2017-11-19T02:15:29.205Z,99.04
2017-11-19T02:16:29.235Z,98.91
2017-11-19T02:17:29.168Z,98.91
2017-11-19T02:18:29.242Z,98.94
2017-11-19T02:19:29.234Z,98.91
2017-11-19T02:20:29.297Z,98.85
2017-11-19T02:21:29.238Z,98.94
2017-11-19T02:22:29.268Z,98.83
2017-11-19T02:23:29.234Z,98.96
2017-11-19T02:24:29.292Z,99.02
2017-11-19T02:25:29.173Z,98.96
2017-11-19T02:26:29.288Z,98.96
2017-11-19T02:27:29.262Z,98.99
2017-11-19T02:28:29.271Z,99.07
2017-11-19T02:29:29.169Z,99.29
2017-11-19T02:30:29.222Z,99.45
2017-11-19T02:31:29.291Z,99.72
2017-11-19T02:32:29.312Z,99.81
2017-11-19T02:33:29.315Z,99.78
2017-11-19T02:34:29.315Z,99.70
2017-11-19T02:35:29.254Z,99.67
2017-11-19T02:36:29.245Z,99.72
2017-11-19T02:37:29.323Z,99.81
2017-11-19T02:38:29.250Z,99.86
2017-11-19T02:39:29.317Z,99.99
2017-11-19T02:40:29.318Z,99.99
2017-11-19T02:41:29.316Z,99.99
2017-11-19T02:42:29.316Z,99.99
2017-11-19T02:43:29.317Z,99.75
2017-11-19T02:44:29.323Z,99.40
2017-11-19T02:45:29.259Z,99.32
2017-11-19T02:46:29.325Z,99.34
2017-11-19T02:47:29.257Z,99.34
2017-11-19T02:48:29.258Z,99.15
2017-11-19T02:49:29.327Z,99.07
2017-11-19T02:50:29.318Z,99.04
2017-11-19T02:51:29.260Z,98.80
2017-11-19T02:52:29.252Z,98.80
2017-11-19T02:53:29.326Z,98.83
2017-11-19T02:54:29.259Z,98.96
2017-11-19T02:55:29.257Z,99.07
2017-11-19T02:56:29.255Z,99.13
2017-11-19T02:57:29.365Z,99.02
2017-11-19T02:58:29.327Z,98.48
2017-11-19T02:59:29.260Z,97.74
2017-11-19T03:00:29.328Z,97.69
2017-11-19T03:01:29.329Z,97.85
2017-11-19T03:02:29.289Z,97.83
2017-11-19T03:03:29.276Z,97.15
2017-11-19T03:04:29.331Z,97.18
2017-11-19T03:05:29.266Z,97.26
2017-11-19T03:06:29.334Z,97.26
2017-11-19T03:07:29.271Z,97.15
2017-11-19T03:08:29.337Z,97.04
2017-11-19T03:09:29.336Z,97.04
2017-11-19T03:10:29.273Z,97.07
2017-11-19T03:11:29.335Z,97.10
2017-11-19T03:12:29.271Z,97.07
2017-11-19T03:13:29.270Z,97.10
2017-11-19T03:14:29.336Z,97.12
2017-11-19T03:15:29.264Z,97.02
2017-11-19T03:16:29.339Z,96.96
2017-11-19T03:17:29.275Z,96.99
2017-11-19T03:18:29.342Z,97.07
2017-11-19T03:19:29.277Z,97.15
2017-11-19T03:20:29.234Z,97.28
2017-11-19T03:21:29.275Z,97.23
2017-11-19T03:22:29.343Z,97.23
2017-11-19T03:23:29.276Z,97.34
2017-11-19T03:24:29.345Z,97.36
2017-11-19T03:25:29.345Z,97.53
2017-11-19T03:26:29.278Z,97.61
2017-11-19T03:27:29.344Z,97.72
2017-11-19T03:28:29.275Z,97.88
2017-11-19T03:29:29.363Z,98.12
2017-11-19T03:30:29.285Z,98.40
2017-11-19T03:31:29.349Z,98.66
2017-11-19T03:32:29.259Z,99.04
2017-11-19T03:33:29.279Z,99.07
2017-11-19T03:34:29.216Z,99.10
2017-11-19T03:35:29.320Z,99.02
2017-11-19T03:36:29.297Z,98.94
2017-11-19T03:37:29.298Z,98.99
2017-11-19T03:38:29.223Z,98.96
2017-11-19T03:39:29.322Z,99.02
2017-11-19T03:40:29.285Z,99.23
2017-11-19T03:41:29.262Z,99.13
2017-11-19T03:42:29.355Z,98.96
2017-11-19T03:43:29.286Z,98.91
2017-11-19T03:44:29.356Z,98.96
2017-11-19T03:45:29.295Z,98.88
2017-11-19T03:46:29.357Z,98.83
2017-11-19T03:47:29.358Z,98.83
2017-11-19T03:48:29.326Z,98.77
2017-11-19T03:49:29.292Z,98.53
2017-11-19T03:50:29.357Z,98.42
2017-11-19T03:51:29.294Z,98.50
2017-11-19T03:52:29.261Z,98.61
2017-11-19T03:53:29.357Z,98.66
2017-11-19T03:54:29.262Z,98.85
2017-11-19T03:55:29.331Z,99.10
2017-11-19T03:56:29.259Z,99.21
2017-11-19T03:57:29.337Z,99.32
2017-11-19T03:58:29.266Z,99.29
2017-11-19T03:59:29.247Z,99.21
2017-11-19T04:00:29.246Z,99.10
2017-11-19T04:01:29.272Z,99.02
2017-11-19T04:02:29.267Z,99.07
2017-11-19T04:03:29.364Z,99.07
2017-11-19T04:04:29.336Z,98.96
2017-11-19T04:05:29.278Z,98.85
2017-11-19T04:06:29.231Z,98.83
2017-11-19T04:07:29.326Z,98.96
2017-11-19T04:08:29.250Z,98.72
2017-11-19T04:09:29.322Z,98.59
2017-11-19T04:10:29.276Z,98.31
2017-11-19T04:11:29.278Z,98.04
2017-11-19T04:12:29.334Z,97.77
2017-11-19T04:13:29.373Z,97.47
2017-11-19T04:14:29.241Z,97.47
2017-11-19T04:15:29.298Z,97.45
2017-11-19T04:16:29.330Z,97.47
2017-11-19T04:17:29.253Z,97.53
2017-11-19T04:18:29.357Z,97.58
2017-11-19T04:19:29.242Z,97.74
2017-11-19T04:20:29.288Z,97.85
2017-11-19T04:21:29.309Z,97.47
2017-11-19T04:22:29.334Z,97.61
2017-11-19T04:23:29.312Z,97.66
2017-11-19T04:24:29.377Z,97.74
2017-11-19T04:25:29.317Z,97.53
2017-11-19T04:26:29.380Z,97.53
2017-11-19T04:27:29.382Z,97.77
2017-11-19T04:28:29.391Z,97.88
2017-11-19T04:29:29.322Z,97.74
2017-11-19T04:30:29.380Z,97.74
2017-11-19T04:31:29.336Z,97.58
2017-11-19T04:32:29.317Z,97.58
2017-11-19T04:33:29.385Z,97.53
2017-11-19T04:34:29.317Z,97.55
2017-11-19T04:35:29.345Z,97.69
2017-11-19T04:36:29.324Z,97.66
2017-11-19T04:37:29.388Z,97.53
2017-11-19T04:38:29.344Z,97.55
2017-11-19T04:39:29.389Z,97.55
2017-11-19T04:40:29.323Z,97.53
2017-11-19T04:41:29.389Z,97.58
2017-11-19T04:42:29.321Z,97.61
2017-11-19T04:43:29.392Z,97.45
2017-11-19T04:44:29.321Z,97.45
2017-11-19T04:45:29.392Z,97.50
2017-11-19T04:46:29.325Z,97.45
2017-11-19T04:47:29.396Z,97.45
2017-11-19T04:48:29.328Z,97.28
2017-11-19T04:49:29.394Z,97.10
2017-11-19T04:50:29.330Z,96.83
2017-11-19T04:51:29.395Z,96.64
2017-11-19T04:52:29.330Z,96.58
2017-11-19T04:53:29.396Z,96.61
2017-11-19T04:54:29.335Z,96.83
2017-11-19T04:55:29.395Z,96.99
2017-11-19T04:56:29.332Z,96.77
2017-11-19T04:57:29.401Z,96.66
2017-11-19T04:58:29.346Z,96.72
2017-11-19T04:59:29.399Z,96.72
2017-11-19T05:00:29.336Z,96.45
2017-11-19T05:01:29.281Z,96.28
2017-11-19T05:02:29.336Z,96.15
2017-11-19T05:03:29.404Z,95.66
2017-11-19T05:04:29.341Z,95.75
2017-11-19T05:05:29.441Z,95.72
2017-11-19T05:06:29.338Z,95.91
2017-11-19T05:07:29.425Z,96.07
2017-11-19T05:08:29.359Z,95.94
2017-11-19T05:09:29.408Z,95.37
2017-11-19T05:10:29.346Z,95.39
2017-11-19T05:11:29.416Z,95.47
2017-11-19T05:12:29.339Z,95.75
2017-11-19T05:13:29.342Z,95.66
2017-11-19T05:14:29.408Z,95.83
2017-11-19T05:15:29.345Z,96.17
2017-11-19T05:16:29.441Z,96.15
2017-11-19T05:17:29.342Z,96.02
2017-11-19T05:18:29.370Z,95.88
2017-11-19T05:19:29.353Z,95.80
2017-11-19T05:20:29.414Z,95.50
2017-11-19T05:21:29.346Z,95.83
2017-11-19T05:22:29.413Z,95.64
2017-11-19T05:23:29.353Z,95.39
2017-11-19T05:24:29.416Z,95.45
2017-11-19T05:25:29.351Z,95.64
2017-11-19T05:26:29.423Z,95.37
2017-11-19T05:27:29.424Z,94.88
2017-11-19T05:28:29.417Z,95.07
2017-11-19T05:29:29.351Z,95.07
2017-11-19T05:30:29.420Z,94.91
2017-11-19T05:31:29.298Z,95.12
2017-11-19T05:32:29.369Z,95.15
2017-11-19T05:33:29.367Z,94.67
2017-11-19T05:34:29.268Z,94.40
2017-11-19T05:35:29.323Z,94.26
2017-11-19T05:36:29.279Z,94.37
2017-11-19T05:37:29.327Z,94.61
2017-11-19T05:38:29.272Z,94.42
2017-11-19T05:39:29.296Z,94.10
2017-11-19T05:40:29.369Z,94.26
2017-11-19T05:41:29.376Z,94.40
2017-11-19T05:42:29.356Z,94.15
2017-11-19T05:43:29.376Z,94.12
2017-11-19T05:44:29.419Z,94.42
2017-11-19T05:45:29.357Z,94.45
2017-11-19T05:46:29.310Z,94.64
2017-11-19T05:47:29.290Z,94.67
2017-11-19T05:48:29.373Z,94.86
2017-11-19T05:49:29.401Z,94.86
2017-11-19T05:50:29.417Z,94.40
2017-11-19T05:51:29.310Z,94.56
2017-11-19T05:52:29.432Z,94.07
2017-11-19T05:53:29.373Z,94.04
2017-11-19T05:54:29.457Z,94.40
2017-11-19T05:55:29.433Z,94.83
2017-11-19T05:56:29.368Z,94.96
2017-11-19T05:57:29.438Z,95.15
2017-11-19T05:58:29.366Z,95.01
2017-11-19T05:59:29.435Z,95.10
2017-11-19T06:00:29.366Z,95.01
2017-11-19T06:01:29.368Z,94.88
2017-11-19T06:02:29.292Z,94.88
2017-11-19T06:03:29.382Z,94.96
2017-11-19T06:04:29.335Z,95.01
2017-11-19T06:05:29.383Z,94.91
2017-11-19T06:06:29.291Z,94.96
2017-11-19T06:07:29.388Z,95.20
2017-11-19T06:08:29.385Z,95.10
2017-11-19T06:09:29.342Z,95.53
2017-11-19T06:10:29.385Z,95.47
2017-11-19T06:11:29.338Z,95.45
2017-11-19T06:12:29.443Z,95.47
2017-11-19T06:13:29.376Z,95.58
2017-11-19T06:14:29.446Z,95.75
2017-11-19T06:15:29.380Z,95.91
2017-11-19T06:16:29.445Z,96.13
2017-11-19T06:17:29.401Z,95.88
2017-11-19T06:18:29.447Z,95.88
2017-11-19T06:19:29.447Z,95.98
2017-11-19T06:20:29.393Z,95.96
2017-11-19T06:21:29.382Z,95.94
2017-11-19T06:22:29.400Z,95.85
2017-11-19T06:23:29.390Z,95.69
2017-11-19T06:24:29.452Z,95.45
2017-11-19T06:25:29.391Z,95.53
2017-11-19T06:26:29.451Z,95.69
2017-11-19T06:27:29.385Z,95.47
2017-11-19T06:28:29.343Z,95.83
2017-11-19T06:29:29.455Z,95.72
2017-11-19T06:30:29.390Z,95.72
2017-11-19T06:31:29.477Z,95.69
2017-11-19T06:32:29.384Z,95.61
2017-11-19T06:33:29.469Z,95.64
2017-11-19T06:34:29.390Z,95.58
2017-11-19T06:35:29.462Z,95.34
2017-11-19T06:36:29.395Z,95.10
2017-11-19T06:37:29.467Z,95.31
2017-11-19T06:38:29.393Z,95.47
2017-11-19T06:39:29.460Z,95.58
2017-11-19T06:40:29.398Z,95.80
2017-11-19T06:41:29.468Z,95.72
2017-11-19T06:42:29.418Z,95.47
2017-11-19T06:43:29.463Z,95.39
2017-11-19T06:44:29.393Z,95.45
2017-11-19T06:45:29.464Z,95.45
2017-11-19T06:46:29.402Z,95.26
2017-11-19T06:47:29.399Z,95.23
2017-11-19T06:48:29.464Z,95.47
2017-11-19T06:49:29.400Z,95.26
2017-11-19T06:50:29.401Z,95.28
2017-11-19T06:51:29.490Z,95.45
2017-11-19T06:52:29.468Z,95.42
2017-11-19T06:53:29.401Z,95.66
2017-11-19T06:54:29.468Z,95.80
2017-11-19T06:55:29.404Z,95.64
2017-11-19T06:56:29.474Z,95.61
2017-11-19T06:57:29.413Z,95.69
2017-11-19T06:58:29.510Z,95.83
2017-11-19T06:59:29.472Z,95.39
2017-11-19T07:00:29.410Z,95.07
2017-11-19T07:01:29.480Z,95.10
2017-11-19T07:02:29.422Z,94.93
2017-11-19T07:03:29.407Z,94.67
2017-11-19T07:04:29.476Z,94.12
2017-11-19T07:05:29.476Z,93.89
2017-11-19T07:06:29.479Z,94.31
2017-11-19T07:07:29.411Z,94.59
2017-11-19T07:08:29.411Z,94.34
2017-11-19T07:09:29.490Z,94.42
2017-11-19T07:10:29.402Z,94.02
2017-11-19T07:11:29.478Z,94.31
2017-11-19T07:12:29.468Z,94.26
2017-11-19T07:13:29.450Z,93.85
2017-11-19T07:14:29.358Z,93.51
2017-11-19T07:15:29.469Z,93.75
2017-11-19T07:16:29.362Z,93.81
2017-11-19T07:17:29.431Z,93.26
2017-11-19T07:18:29.420Z,93.56
2017-11-19T07:19:29.395Z,93.48
2017-11-19T07:20:29.465Z,93.67
2017-11-19T07:21:29.355Z,93.85
2017-11-19T07:22:29.412Z,93.51
2017-11-19T07:23:29.486Z,93.13
2017-11-19T07:24:29.419Z,93.54
2017-11-19T07:25:29.522Z,92.91
2017-11-19T07:26:29.417Z,93.10
2017-11-19T07:27:29.487Z,93.16
2017-11-19T07:28:29.412Z,93.10
2017-11-19T07:29:29.490Z,93.40
2017-11-19T07:30:29.427Z,93.26
2017-11-19T07:31:29.491Z,92.95
2017-11-19T07:32:29.491Z,93.24
2017-11-19T07:33:29.387Z,93.51
2017-11-19T07:34:29.434Z,93.91
2017-11-19T07:35:29.399Z,94.04
2017-11-19T07:36:29.372Z,93.99
2017-11-19T07:37:29.494Z,94.12
2017-11-19T07:38:29.399Z,94.26
2017-11-19T07:39:29.496Z,94.15
2017-11-19T07:40:29.460Z,94.02
2017-11-19T07:41:29.406Z,94.23
2017-11-19T07:42:29.428Z,94.12
2017-11-19T07:43:29.507Z,94.18
2017-11-19T07:44:29.427Z,94.23
2017-11-19T07:45:29.498Z,94.53
2017-11-19T07:46:29.451Z,93.89
2017-11-19T07:47:29.499Z,93.85
2017-11-19T07:48:29.465Z,93.99
2017-11-19T07:49:29.501Z,93.89
2017-11-19T07:50:29.500Z,93.40
2017-11-19T07:51:29.437Z,93.24
2017-11-19T07:52:29.465Z,93.21
2017-11-19T07:53:29.392Z,92.97
2017-11-19T07:54:29.407Z,93.24
2017-11-19T07:55:29.354Z,92.84
2017-11-19T07:56:29.441Z,92.24
2017-11-19T07:57:29.475Z,92.27
2017-11-19T07:58:29.395Z,92.08
2017-11-19T07:59:29.463Z,92.57
2017-11-19T08:00:29.431Z,92.32
2017-11-19T08:01:29.467Z,92.57
2017-11-19T08:02:29.459Z,92.84
2017-11-19T08:03:29.512Z,92.14
2017-11-19T08:04:29.511Z,91.52
2017-11-19T08:05:29.444Z,91.73
2017-11-19T08:06:29.537Z,91.95
2017-11-19T08:07:29.512Z,91.82
2017-11-19T08:08:29.451Z,91.33
2017-11-19T08:09:29.446Z,91.57
2017-11-19T08:10:29.513Z,91.60
2017-11-19T08:11:29.451Z,91.73
2017-11-19T08:12:29.516Z,91.79
2017-11-19T08:13:29.459Z,91.60
2017-11-19T08:14:29.516Z,91.36
2017-11-19T08:15:29.451Z,91.20
2017-11-19T08:16:29.516Z,91.25
2017-11-19T08:17:29.451Z,91.25
2017-11-19T08:18:29.520Z,90.96
2017-11-19T08:19:29.450Z,91.17
2017-11-19T08:20:29.522Z,90.42
2017-11-19T08:21:29.452Z,90.45
2017-11-19T08:22:29.522Z,90.34
2017-11-19T08:23:29.458Z,90.28
2017-11-19T08:24:29.523Z,89.94
2017-11-19T08:25:29.454Z,89.64
2017-11-19T08:26:29.526Z,89.54
2017-11-19T08:27:29.448Z,89.59
2017-11-19T08:28:29.539Z,89.94
2017-11-19T08:29:29.457Z,89.43
2017-11-19T08:30:29.527Z,89.22
2017-11-19T08:31:29.455Z,89.16
2017-11-19T08:32:29.524Z,88.97
2017-11-19T08:33:29.424Z,89.48
2017-11-19T08:34:29.471Z,87.69
2017-11-19T08:35:29.408Z,88.12
2017-11-19T08:36:29.473Z,88.62
2017-11-19T08:37:29.465Z,88.17
2017-11-19T08:38:29.420Z,88.57
2017-11-19T08:39:29.379Z,88.07
2017-11-19T08:40:29.359Z,88.23
2017-11-19T08:41:29.415Z,87.74
2017-11-19T08:42:29.413Z,87.88
2017-11-19T08:43:29.362Z,88.33
2017-11-19T08:44:29.364Z,88.62
2017-11-19T08:45:29.421Z,87.29
2017-11-19T08:46:29.467Z,87.29
2017-11-19T08:47:29.476Z,87.24
2017-11-19T08:48:29.373Z,87.88
2017-11-19T08:49:29.471Z,86.94
2017-11-19T08:50:29.368Z,87.05
2017-11-19T08:51:29.479Z,87.67
2017-11-19T08:52:29.503Z,88.15
2017-11-19T08:53:29.459Z,87.77
2017-11-19T08:54:29.538Z,88.25
2017-11-19T08:55:29.540Z,88.36
2017-11-19T08:56:29.511Z,88.92
2017-11-19T08:57:29.420Z,88.23
2017-11-19T08:58:29.526Z,88.65
2017-11-19T08:59:29.511Z,88.89
2017-11-19T09:00:29.499Z,88.87
2017-11-19T09:01:29.418Z,88.62
2017-11-19T09:02:29.535Z,88.95
2017-11-19T09:03:29.474Z,87.96
2017-11-19T09:04:29.508Z,88.36
2017-11-19T09:05:29.546Z,88.39
2017-11-19T09:06:29.484Z,88.25
2017-11-19T09:07:29.547Z,88.52
2017-11-19T09:08:29.477Z,88.41
2017-11-19T09:09:29.544Z,88.20
2017-11-19T09:10:29.482Z,87.96
2017-11-19T09:11:29.550Z,88.36
2017-11-19T09:12:29.477Z,88.41
2017-11-19T09:13:29.540Z,89.00
2017-11-19T09:14:29.458Z,88.62
2017-11-19T09:15:29.514Z,88.62
2017-11-19T09:16:29.455Z,88.65
2017-11-19T09:17:29.495Z,89.40
2017-11-19T09:18:29.536Z,90.66
2017-11-19T09:19:29.497Z,90.39
2017-11-19T09:20:29.495Z,91.25
2017-11-19T09:21:29.544Z,91.92
2017-11-19T09:22:29.553Z,92.30
2017-11-19T09:23:29.490Z,92.11
2017-11-19T09:24:29.559Z,93.59
2017-11-19T09:25:29.489Z,93.51
2017-11-19T09:26:29.558Z,93.75
2017-11-19T09:27:29.492Z,93.94
2017-11-19T09:28:29.559Z,93.91
2017-11-19T09:29:29.488Z,93.99
2017-11-19T09:30:29.561Z,93.70
2017-11-19T09:31:29.493Z,93.54
2017-11-19T09:32:29.586Z,93.85
2017-11-19T09:33:29.501Z,94.12
2017-11-19T09:34:29.494Z,94.69
2017-11-19T09:35:29.493Z,94.29
2017-11-19T09:36:29.567Z,94.42
2017-11-19T09:37:29.494Z,94.23
2017-11-19T09:38:29.568Z,94.18
2017-11-19T09:39:29.493Z,94.53
2017-11-19T09:40:29.569Z,95.01
2017-11-19T09:41:29.516Z,94.83
2017-11-19T09:42:29.579Z,94.26
2017-11-19T09:43:29.507Z,94.69
2017-11-19T09:44:29.512Z,95.12
2017-11-19T09:45:29.512Z,94.83
2017-11-19T09:46:29.511Z,94.80
2017-11-19T09:47:29.511Z,94.88
2017-11-19T09:48:29.453Z,95.04
2017-11-19T09:49:29.448Z,95.56
2017-11-19T09:50:29.397Z,96.13
2017-11-19T09:51:29.457Z,95.64
2017-11-19T09:52:29.528Z,95.56
2017-11-19T09:53:29.439Z,95.07
2017-11-19T09:54:29.434Z,95.28
2017-11-19T09:55:29.505Z,95.94
2017-11-19T09:56:29.505Z,95.61
2017-11-19T09:57:29.432Z,95.45
2017-11-19T09:58:29.534Z,95.01
2017-11-19T09:59:29.540Z,94.72
2017-11-19T10:00:29.519Z,94.77
2017-11-19T10:01:29.520Z,94.29
2017-11-19T10:02:29.523Z,93.83
2017-11-19T10:03:29.554Z,93.48
2017-11-19T10:04:29.582Z,92.76
2017-11-19T10:05:29.584Z,93.37
2017-11-19T10:06:29.515Z,93.13
2017-11-19T10:07:29.584Z,93.10
2017-11-19T10:08:29.585Z,93.29
2017-11-19T10:09:29.511Z,93.43
2017-11-19T10:10:29.587Z,92.40
2017-11-19T10:11:29.527Z,92.70
2017-11-19T10:12:29.513Z,93.21
2017-11-19T10:13:29.592Z,91.97
2017-11-19T10:14:29.518Z,91.22
2017-11-19T10:15:29.589Z,89.59
2017-11-19T10:16:29.591Z,90.45
2017-11-19T10:17:29.797Z,90.15
2017-11-19T10:18:29.621Z,90.34
2017-11-19T10:19:29.519Z,89.37
2017-11-19T10:20:29.591Z,88.87
2017-11-19T10:21:29.524Z,88.33
2017-11-19T10:22:29.605Z,88.81
2017-11-19T10:23:29.597Z,88.97
2017-11-19T10:24:29.519Z,89.70
2017-11-19T10:25:29.605Z,90.47
2017-11-19T10:26:29.523Z,90.55
2017-11-19T10:27:29.596Z,90.82
2017-11-19T10:28:29.532Z,90.82
2017-11-19T10:29:29.599Z,90.66
2017-11-19T10:30:29.526Z,91.17
2017-11-19T10:31:29.598Z,91.22
2017-11-19T10:32:29.533Z,91.90
2017-11-19T10:33:29.599Z,91.65
2017-11-19T10:34:29.526Z,91.38
2017-11-19T10:35:29.585Z,92.35
2017-11-19T10:36:29.566Z,93.05
2017-11-19T10:37:29.614Z,93.32
2017-11-19T10:38:29.596Z,93.59
2017-11-19T10:39:29.602Z,93.02
2017-11-19T10:40:29.590Z,92.70
2017-11-19T10:41:29.591Z,93.62
2017-11-19T10:42:29.534Z,94.31
2017-11-19T10:43:29.544Z,94.45
2017-11-19T10:44:29.536Z,93.78
2017-11-19T10:45:29.614Z,93.18
2017-11-19T10:46:29.536Z,93.08
2017-11-19T10:47:29.542Z,92.73
2017-11-19T10:48:29.608Z,92.24
2017-11-19T10:49:29.616Z,92.05
2017-11-19T10:50:29.611Z,92.30
2017-11-19T10:51:29.541Z,92.78
2017-11-19T10:52:29.612Z,92.76
2017-11-19T10:53:29.612Z,92.11
2017-11-19T10:54:29.550Z,92.05
2017-11-19T10:55:29.611Z,91.30
2017-11-19T10:56:29.543Z,91.07
2017-11-19T10:57:29.614Z,90.80
2017-11-19T10:58:29.548Z,91.22
2017-11-19T10:59:29.615Z,90.26
2017-11-19T11:00:29.547Z,90.71
2017-11-19T11:01:29.617Z,90.13
2017-11-19T11:02:29.544Z,89.59
2017-11-19T11:03:29.617Z,89.40
2017-11-19T11:04:29.547Z,88.60
2017-11-19T11:05:29.618Z,87.88
2017-11-19T11:06:29.550Z,88.09
2017-11-19T11:07:29.547Z,87.90
2017-11-19T11:08:29.622Z,87.53
2017-11-19T11:09:29.555Z,87.05
2017-11-19T11:10:29.622Z,86.65
2017-11-19T11:11:29.591Z,87.37
2017-11-19T11:12:29.623Z,86.91
2017-11-19T11:13:29.619Z,86.41
2017-11-19T11:14:29.565Z,86.57
2017-11-19T11:15:29.589Z,86.49
2017-11-19T11:16:29.589Z,86.04
2017-11-19T11:17:29.537Z,86.33
2017-11-19T11:18:29.593Z,84.89
2017-11-19T11:19:29.614Z,84.58
2017-11-19T11:20:29.534Z,85.43
2017-11-19T11:21:29.544Z,84.71
2017-11-19T11:22:29.591Z,83.59
2017-11-19T11:23:29.623Z,83.65
2017-11-19T11:24:29.572Z,83.91
2017-11-19T11:25:29.595Z,84.02
2017-11-19T11:26:29.513Z,84.34
2017-11-19T11:27:29.577Z,82.82
2017-11-19T11:28:29.544Z,82.21
2017-11-19T11:29:29.536Z,84.95
2017-11-19T11:30:29.556Z,83.57
2017-11-19T11:31:29.606Z,83.73
2017-11-19T11:32:29.619Z,84.50
2017-11-19T11:33:29.562Z,84.17
2017-11-19T11:34:29.525Z,85.61
2017-11-19T11:35:29.585Z,85.53
2017-11-19T11:36:29.581Z,85.80
2017-11-19T11:37:29.589Z,86.38
2017-11-19T11:38:29.528Z,86.46
2017-11-19T11:39:29.603Z,86.76
2017-11-19T11:40:29.544Z,86.63
2017-11-19T11:41:29.605Z,85.08
2017-11-19T11:42:29.619Z,85.27
2017-11-19T11:43:29.644Z,87.10
2017-11-19T11:44:29.574Z,86.52
2017-11-19T11:45:29.644Z,87.56
2017-11-19T11:46:29.577Z,89.29
2017-11-19T11:47:29.649Z,88.84
2017-11-19T11:48:29.577Z,89.72
2017-11-19T11:49:29.645Z,90.28
2017-11-19T11:50:29.577Z,90.07
2017-11-19T11:51:29.644Z,90.58
2017-11-19T11:52:29.581Z,90.23
2017-11-19T11:53:29.649Z,89.59
2017-11-19T11:54:29.648Z,90.18
2017-11-19T11:55:29.583Z,90.09
2017-11-19T11:56:29.652Z,90.34
2017-11-19T11:57:29.652Z,89.78
2017-11-19T11:58:29.612Z,90.45
2017-11-19T11:59:29.581Z,90.42
2017-11-19T12:00:29.658Z,90.23
2017-11-19T12:01:29.583Z,90.34
2017-11-19T12:02:29.658Z,89.91
2017-11-19T12:03:29.578Z,88.04
2017-11-19T12:04:29.658Z,87.96
2017-11-19T12:05:29.585Z,88.23
2017-11-19T12:06:29.587Z,88.39
2017-11-19T12:07:29.656Z,88.09
2017-11-19T12:08:29.589Z,88.39
2017-11-19T12:09:29.657Z,88.33
2017-11-19T12:10:29.658Z,88.33
2017-11-19T12:11:29.588Z,87.51
2017-11-19T12:12:29.585Z,88.17
2017-11-19T12:13:29.508Z,88.57
2017-11-19T12:14:29.510Z,88.54
2017-11-19T12:15:29.555Z,88.62
2017-11-19T12:16:29.555Z,87.93
2017-11-19T12:17:29.514Z,88.39
2017-11-19T12:18:29.609Z,87.82
2017-11-19T12:19:29.606Z,87.72
2017-11-19T12:20:29.556Z,88.01
2017-11-19T12:21:29.556Z,88.81
2017-11-19T12:22:29.564Z,87.93
2017-11-19T12:23:29.667Z,87.37
2017-11-19T12:24:29.596Z,87.77
2017-11-19T12:25:29.668Z,87.72
2017-11-19T12:26:29.600Z,88.12
2017-11-19T12:27:29.668Z,87.61
2017-11-19T12:28:29.599Z,87.74
2017-11-19T12:29:29.700Z,86.54
2017-11-19T12:30:29.601Z,86.30
2017-11-19T12:31:29.670Z,86.84
2017-11-19T12:32:29.604Z,86.91
2017-11-19T12:33:29.673Z,86.20
2017-11-19T12:34:29.601Z,86.97
2017-11-19T12:35:29.673Z,88.01
2017-11-19T12:36:29.600Z,88.62
2017-11-19T12:37:29.676Z,89.11
2017-11-19T12:38:29.606Z,88.81
2017-11-19T12:39:29.677Z,88.52
2017-11-19T12:40:29.601Z,89.06
2017-11-19T12:41:29.675Z,88.31
2017-11-19T12:42:29.609Z,88.97
2017-11-19T12:43:29.538Z,88.20
2017-11-19T12:44:29.602Z,88.87
2017-11-19T12:45:29.579Z,88.46
2017-11-19T12:46:29.641Z,88.92
2017-11-19T12:47:29.638Z,87.88
2017-11-19T12:48:29.643Z,88.36
2017-11-19T12:49:29.641Z,88.01
2017-11-19T12:50:29.540Z,87.74
2017-11-19T12:51:29.575Z,87.37
2017-11-19T12:52:29.613Z,87.59